TAF KCWA
KCWA 081733Z 0818/0918 VRB04KT P6SM BKN250 FM090500 14007G15KT P6SM BKN100 FM091300 14010G18KT P6SM OVC080 WS018/18035KT FM091400 14010G19KT P6SM -SN OVC040 WS018/18040KT FM091500 14011G21KT 4SM -SN SCT012 OVC025 WS020/18040KT FM091600 15011G21KT 1 1/2SM -SN SCT007 OVC012 WS020/18040KT TEMPO 0916/0918 3/4SM -SN OVC007=
METAR KCWA
WC KCWA
WS KCWA
WV KCWA